createdAt,value
2022-11-29T00:01:20.663Z,26.95
2022-11-29T00:03:48.591Z,25.35
2022-11-29T00:06:21.163Z,26.80
2022-11-29T00:11:38.291Z,26.25
2022-11-29T00:14:06.703Z,27.27
2022-11-29T00:16:34.593Z,28.90
2022-11-29T00:19:02.379Z,27.83
2022-11-29T00:21:29.845Z,30.20
2022-11-29T00:23:57.079Z,26.25
2022-11-29T00:26:24.414Z,28.45
2022-11-29T00:28:51.832Z,27.27
2022-11-29T00:31:26.353Z,28.27
2022-11-29T00:33:53.492Z,25.95
2022-11-29T00:36:20.693Z,25.48
2022-11-29T00:38:47.848Z,26.55
2022-11-29T00:41:15.123Z,25.90
2022-11-29T00:43:42.166Z,27.20
2022-11-29T00:46:09.685Z,27.73
2022-11-29T00:48:37.212Z,25.05
2022-11-29T00:51:05.609Z,26.20
2022-11-29T00:53:34.320Z,25.05
2022-11-29T00:56:01.522Z,24.88
2022-11-29T00:58:29.147Z,25.88
2022-11-29T01:00:56.743Z,26.75
2022-11-29T01:03:24.663Z,22.80
2022-11-29T01:05:52.058Z,31.52
2022-11-29T01:08:19.492Z,27.13
2022-11-29T01:10:46.683Z,26.50
2022-11-29T01:13:13.623Z,23.60
2022-11-29T01:15:40.841Z,24.27
2022-11-29T01:18:07.822Z,23.88
2022-11-29T01:20:34.732Z,25.83
2022-11-29T01:23:01.783Z,23.33
2022-11-29T01:25:29.573Z,32.88
2022-11-29T01:27:56.623Z,23.60
2022-11-29T01:30:24.169Z,20.88
2022-11-29T01:32:51.582Z,23.35
2022-11-29T01:35:18.513Z,27.15
2022-11-29T01:37:45.497Z,24.00
2022-11-29T01:40:14.140Z,26.45
2022-11-29T01:42:41.333Z,21.55
2022-11-29T01:45:26.447Z,23.38
2022-11-29T01:47:56.580Z,26.25
2022-11-29T01:50:23.799Z,32.38
2022-11-29T01:52:51.221Z,26.48
2022-11-29T01:55:18.704Z,30.45
2022-11-29T01:57:46.062Z,20.88
2022-11-29T02:00:16.772Z,18.35
2022-11-29T02:02:47.120Z,19.73
2022-11-29T02:05:15.612Z,18.00
2022-11-29T02:07:44.964Z,21.38
2022-11-29T02:10:12.060Z,22.63
2022-11-29T02:12:54.804Z,24.23
2022-11-29T02:15:59.877Z,22.10
2022-11-29T02:18:51.703Z,19.90
2022-11-29T02:21:28.402Z,18.55
2022-11-29T02:24:13.893Z,25.48
2022-11-29T02:27:16.303Z,20.48
2022-11-29T02:29:58.722Z,21.23
2022-11-29T02:32:31.953Z,15.45
2022-11-29T02:35:41.092Z,23.35
2022-11-29T02:38:23.152Z,16.33
2022-11-29T02:41:22.974Z,19.45
2022-11-29T02:43:52.773Z,16.60
2022-11-29T02:46:43.182Z,17.42
2022-11-29T02:49:28.651Z,18.08
2022-11-29T02:52:06.320Z,19.48
2022-11-29T02:54:45.917Z,21.90
2022-11-29T02:57:35.002Z,22.40
2022-11-29T03:00:06.929Z,17.58
2022-11-29T03:02:39.168Z,18.55
2022-11-29T03:05:30.616Z,16.92
2022-11-29T03:08:10.820Z,17.13
2022-11-29T03:11:03.911Z,16.35
2022-11-29T03:14:06.272Z,18.73
2022-11-29T03:17:06.113Z,14.90
2022-11-29T03:20:07.410Z,15.80
2022-11-29T03:22:48.422Z,14.80
2022-11-29T03:25:40.375Z,14.65
2022-11-29T03:28:23.193Z,17.05
2022-11-29T03:31:16.816Z,17.45
2022-11-29T03:33:55.242Z,20.85
2022-11-29T03:36:28.253Z,16.02
2022-11-29T03:38:58.101Z,14.77
2022-11-29T03:41:46.722Z,22.15
2022-11-29T03:44:18.254Z,17.88
2022-11-29T03:46:59.112Z,18.50
2022-11-29T03:49:31.626Z,19.92
2022-11-29T03:52:07.562Z,19.75
2022-11-29T03:54:56.863Z,16.63
2022-11-29T03:57:35.263Z,13.00
2022-11-29T04:00:07.192Z,16.10
2022-11-29T04:02:57.885Z,18.33
2022-11-29T04:05:34.190Z,20.98
2022-11-29T04:08:20.023Z,23.48
2022-11-29T04:11:03.795Z,16.40
2022-11-29T04:13:57.792Z,21.73
2022-11-29T04:16:48.925Z,17.17
2022-11-29T04:19:30.544Z,16.38
2022-11-29T04:22:35.003Z,14.35
2022-11-29T04:25:19.533Z,19.30
2022-11-29T04:28:24.053Z,18.52
2022-11-29T04:31:00.908Z,17.70
2022-11-29T04:33:55.571Z,16.25
2022-11-29T04:36:28.494Z,15.82
2022-11-29T04:39:37.023Z,15.57
2022-11-29T04:42:29.162Z,17.42
2022-11-29T04:45:15.200Z,18.73
2022-11-29T04:47:51.082Z,21.70
2022-11-29T04:50:21.692Z,16.83
2022-11-29T04:53:17.203Z,23.38
2022-11-29T04:56:07.190Z,22.42
2022-11-29T04:58:36.531Z,20.90
2022-11-29T05:01:24.453Z,18.80
2022-11-29T05:04:03.433Z,16.52
2022-11-29T05:09:32.321Z,15.35
2022-11-29T05:12:13.973Z,13.85
2022-11-29T05:14:55.693Z,19.65
2022-11-29T05:17:33.572Z,14.88
2022-11-29T05:20:15.772Z,14.43
2022-11-29T05:22:46.180Z,15.63
2022-11-29T05:25:36.414Z,17.65
2022-11-29T05:28:10.655Z,13.65
2022-11-29T05:31:33.702Z,13.68
2022-11-29T05:34:34.672Z,14.52
2022-11-29T05:37:32.073Z,13.85
2022-11-29T05:40:01.972Z,13.73
2022-11-29T05:42:42.942Z,14.38
2022-11-29T05:45:31.113Z,15.00
2022-11-29T05:48:14.330Z,16.95
2022-11-29T05:51:04.452Z,16.95
2022-11-29T05:53:55.652Z,12.73
2022-11-29T05:57:00.840Z,13.13
2022-11-29T05:59:29.533Z,11.95
2022-11-29T06:01:59.319Z,16.90
2022-11-29T06:04:57.677Z,16.38
2022-11-29T06:07:41.123Z,17.08
2022-11-29T06:10:17.971Z,12.32
2022-11-29T06:13:22.560Z,14.23
2022-11-29T06:16:19.531Z,16.85
2022-11-29T06:19:05.042Z,13.27
2022-11-29T06:21:54.354Z,13.57
2022-11-29T06:24:40.510Z,13.25
2022-11-29T06:27:32.242Z,14.07
2022-11-29T06:30:09.811Z,12.55
2022-11-29T06:32:52.992Z,13.23
2022-11-29T06:35:46.012Z,15.45
2022-11-29T06:38:40.114Z,13.13
2022-11-29T06:41:07.823Z,12.75
2022-11-29T06:43:35.422Z,13.07
2022-11-29T06:46:46.031Z,15.20
2022-11-29T06:52:10.991Z,10.88
2022-11-29T06:55:07.994Z,10.07
2022-11-29T06:57:53.101Z,12.68
2022-11-29T07:00:31.919Z,15.07
2022-11-29T07:05:44.773Z,11.18
2022-11-29T07:08:23.512Z,10.75
2022-11-29T07:10:54.204Z,11.80
2022-11-29T07:13:21.749Z,12.77
2022-11-29T07:15:57.192Z,15.20
2022-11-29T07:19:09.110Z,11.70
2022-11-29T07:21:46.402Z,13.20
2022-11-29T07:24:43.121Z,10.82
2022-11-29T07:27:20.665Z,13.63
2022-11-29T07:30:05.374Z,14.05
2022-11-29T07:33:00.312Z,10.18
2022-11-29T07:35:46.729Z,10.52
2022-11-29T07:38:44.893Z,9.95
2022-11-29T07:41:33.533Z,10.20
2022-11-29T07:44:28.049Z,9.40
2022-11-29T07:46:55.015Z,12.23
2022-11-29T07:49:21.724Z,12.15
2022-11-29T07:51:49.042Z,11.43
2022-11-29T07:54:18.475Z,13.48
2022-11-29T07:56:45.567Z,15.93
2022-11-29T07:59:13.201Z,14.48
2022-11-29T08:01:41.068Z,14.95
2022-11-29T08:04:09.171Z,12.27
2022-11-29T08:06:37.178Z,11.60
2022-11-29T08:09:04.547Z,11.07
2022-11-29T08:11:31.847Z,12.55
2022-11-29T08:14:02.761Z,16.23
2022-11-29T08:16:30.083Z,14.50
2022-11-29T08:18:56.792Z,12.68
2022-11-29T08:21:23.691Z,18.40
2022-11-29T08:23:50.877Z,15.57
2022-11-29T08:26:19.251Z,43.40
2022-11-29T08:28:46.416Z,66.07
2022-11-29T08:31:14.051Z,110.70
2022-11-29T08:33:43.082Z,56.80
2022-11-29T08:36:13.607Z,39.85
2022-11-29T08:38:40.756Z,17.70
2022-11-29T08:41:09.124Z,25.23
2022-11-29T08:43:36.106Z,47.42
2022-11-29T08:46:03.059Z,48.45
2022-11-29T08:48:29.967Z,35.20
2022-11-29T08:50:57.337Z,33.88
2022-11-29T08:53:44.881Z,28.75
2022-11-29T08:56:59.639Z,30.48
2022-11-29T08:59:00.706Z,40.83
2022-11-29T09:01:29.621Z,46.10
2022-11-29T09:03:59.609Z,94.47
2022-11-29T09:06:28.838Z,38.28
2022-11-29T09:08:56.964Z,53.70
2022-11-29T09:11:25.809Z,54.85
2022-11-29T09:13:55.108Z,27.08
2022-11-29T09:16:25.789Z,30.70
2022-11-29T09:18:56.306Z,24.27
2022-11-29T09:21:25.179Z,20.58
2022-11-29T09:23:59.570Z,18.48
2022-11-29T09:26:29.557Z,44.97
2022-11-29T09:29:01.397Z,18.15
2022-11-29T09:31:29.836Z,66.40
2022-11-29T09:33:57.235Z,19.65
2022-11-29T09:36:28.557Z,20.02
2022-11-29T09:38:57.808Z,38.22
2022-11-29T09:42:03.060Z,29.23
2022-11-29T09:44:38.259Z,31.48
2022-11-29T09:47:20.838Z,28.95
2022-11-29T09:50:17.396Z,29.77
2022-11-29T09:53:12.656Z,22.27
2022-11-29T09:56:17.357Z,17.50
2022-11-29T09:59:09.890Z,23.63
2022-11-29T10:01:43.555Z,20.13
2022-11-29T10:04:16.204Z,18.33
2022-11-29T10:06:54.528Z,27.95
2022-11-29T10:09:37.818Z,17.88
2022-11-29T10:12:20.703Z,18.88
2022-11-29T10:14:58.368Z,19.05
2022-11-29T10:17:34.676Z,19.33
2022-11-29T10:20:23.377Z,19.15
2022-11-29T10:22:55.836Z,18.45
2022-11-29T10:25:36.699Z,17.48
2022-11-29T10:28:05.636Z,16.45
2022-11-29T10:30:34.676Z,16.23
2022-11-29T10:33:02.978Z,16.63
2022-11-29T10:35:30.747Z,16.70
2022-11-29T10:38:29.865Z,19.13
2022-11-29T10:40:50.588Z,18.52
2022-11-29T10:43:17.901Z,19.92
2022-11-29T10:45:51.154Z,16.48
2022-11-29T10:48:20.625Z,22.73
2022-11-29T10:50:49.937Z,17.50
2022-11-29T10:53:25.466Z,18.88
2022-11-29T10:56:01.207Z,15.88
2022-11-29T10:58:30.923Z,17.15
2022-11-29T11:01:01.341Z,17.20
2022-11-29T11:03:31.164Z,16.05
2022-11-29T11:06:07.116Z,16.52
2022-11-29T11:08:35.358Z,14.90
2022-11-29T11:11:04.679Z,16.05
2022-11-29T11:13:32.938Z,16.42
2022-11-29T11:16:09.975Z,16.27
2022-11-29T11:18:38.357Z,16.77
2022-11-29T11:21:09.797Z,17.20
2022-11-29T11:23:43.350Z,17.77
2022-11-29T11:26:13.757Z,16.33
2022-11-29T11:28:49.665Z,13.82
2022-11-29T11:31:26.870Z,15.98
2022-11-29T11:33:53.667Z,16.73
2022-11-29T11:36:20.381Z,16.58
2022-11-29T11:38:57.276Z,17.35
2022-11-29T11:41:45.260Z,17.58
2022-11-29T11:44:58.554Z,17.00
2022-11-29T11:47:28.002Z,16.45
2022-11-29T11:50:02.369Z,14.80
2022-11-29T11:52:34.756Z,13.98
2022-11-29T11:55:26.746Z,14.57
2022-11-29T11:58:14.325Z,15.23
2022-11-29T12:03:38.931Z,14.98
2022-11-29T12:08:54.738Z,14.68
2022-11-29T12:11:22.334Z,11.75
2022-11-29T12:13:55.181Z,12.40
2022-11-29T12:16:28.379Z,11.10
2022-11-29T12:19:07.662Z,12.50
2022-11-29T12:21:38.855Z,13.30
2022-11-29T12:24:31.172Z,12.02
2022-11-29T12:27:03.897Z,11.35
2022-11-29T12:29:33.224Z,12.68
2022-11-29T12:32:37.051Z,10.73
2022-11-29T12:35:25.184Z,9.77
2022-11-29T12:38:00.134Z,9.02
2022-11-29T12:40:36.973Z,9.13
2022-11-29T12:43:11.744Z,10.73
2022-11-29T12:45:54.245Z,10.05
2022-11-29T12:48:41.116Z,13.13
2022-11-29T12:51:16.133Z,12.90
2022-11-29T12:53:59.775Z,12.88
2022-11-29T12:56:28.396Z,15.80
2022-11-29T12:59:17.856Z,28.73
2022-11-29T13:02:16.203Z,11.38
2022-11-29T13:04:56.527Z,11.48
2022-11-29T13:07:57.978Z,13.18
2022-11-29T13:10:40.355Z,19.15
2022-11-29T13:13:18.205Z,12.25
2022-11-29T13:16:04.874Z,13.77
2022-11-29T13:18:55.015Z,14.93
2022-11-29T13:21:48.321Z,14.77
2022-11-29T13:24:26.205Z,14.02
2022-11-29T13:26:53.734Z,12.32
2022-11-29T13:29:22.615Z,15.75
2022-11-29T13:31:50.349Z,14.50
2022-11-29T13:34:25.451Z,12.85
2022-11-29T13:37:19.293Z,20.80
2022-11-29T13:39:52.405Z,12.48
2022-11-29T13:42:34.901Z,16.38
2022-11-29T13:45:16.685Z,12.45
2022-11-29T13:47:58.683Z,12.90
2022-11-29T13:50:46.136Z,12.88
2022-11-29T13:53:20.234Z,21.13
2022-11-29T13:56:02.013Z,18.92
2022-11-29T13:58:29.353Z,17.27
2022-11-29T14:01:02.551Z,17.67
2022-11-29T14:03:31.037Z,16.63
2022-11-29T14:06:37.555Z,17.58
2022-11-29T14:09:19.829Z,13.43
2022-11-29T14:11:52.175Z,15.63
2022-11-29T14:14:40.333Z,16.27
2022-11-29T14:17:59.745Z,13.98
2022-11-29T14:20:28.904Z,14.50
2022-11-29T14:23:04.508Z,15.52
2022-11-29T14:25:51.024Z,15.65
2022-11-29T14:28:21.900Z,23.95
2022-11-29T14:31:02.103Z,17.95
2022-11-29T14:33:47.685Z,16.90
2022-11-29T14:36:14.459Z,21.55
2022-11-29T14:39:14.943Z,32.85
2022-11-29T14:42:04.413Z,28.02
2022-11-29T14:44:32.784Z,26.60
2022-11-29T14:47:05.883Z,36.70
2022-11-29T14:49:39.969Z,33.97
2022-11-29T14:52:19.232Z,17.52
2022-11-29T14:54:56.148Z,18.75
2022-11-29T14:57:52.891Z,21.15
2022-11-29T15:00:21.949Z,18.35
2022-11-29T15:03:10.243Z,19.23
2022-11-29T15:06:10.549Z,24.27
2022-11-29T15:09:02.954Z,16.63
2022-11-29T15:11:37.355Z,15.43
2022-11-29T15:14:16.573Z,17.50
2022-11-29T15:17:08.294Z,16.20
2022-11-29T15:20:13.474Z,17.38
2022-11-29T15:22:52.874Z,11.15
2022-11-29T15:25:23.226Z,13.52
2022-11-29T15:27:56.107Z,12.73
2022-11-29T15:30:40.628Z,10.57
2022-11-29T15:33:41.198Z,11.52
2022-11-29T15:36:25.334Z,79.68
2022-11-29T15:38:57.762Z,32.67
2022-11-29T15:41:32.924Z,31.02
2022-11-29T15:44:05.184Z,57.63
2022-11-29T15:46:37.263Z,54.03
2022-11-29T15:49:25.840Z,63.88
2022-11-29T15:52:00.642Z,39.45
2022-11-29T15:54:56.063Z,29.77
2022-11-29T15:57:44.240Z,30.42
2022-11-29T16:00:23.773Z,28.23
2022-11-29T16:02:55.004Z,25.05
2022-11-29T16:05:37.153Z,18.90
2022-11-29T16:08:10.830Z,27.98
2022-11-29T16:10:51.664Z,21.23
2022-11-29T16:13:35.857Z,30.13
2022-11-29T16:16:27.665Z,47.90
2022-11-29T16:19:02.014Z,30.80
2022-11-29T16:21:33.744Z,24.05
2022-11-29T16:24:14.956Z,22.23
2022-11-29T16:26:48.934Z,21.50
2022-11-29T16:29:38.305Z,63.17
2022-11-29T16:32:31.335Z,49.15
2022-11-29T16:35:30.109Z,41.63
2022-11-29T16:38:01.545Z,27.30
2022-11-29T16:40:36.758Z,29.40
2022-11-29T16:43:06.348Z,41.78
2022-11-29T16:45:43.402Z,33.80
2022-11-29T16:48:26.942Z,13.05
2022-11-29T16:51:49.572Z,15.20
2022-11-29T16:54:26.193Z,9.73
2022-11-29T16:56:57.039Z,8.10
2022-11-29T16:59:28.030Z,8.52
2022-11-29T17:01:57.069Z,8.60
2022-11-29T17:04:26.215Z,7.32
2022-11-29T17:06:55.970Z,7.22
2022-11-29T17:09:29.220Z,19.65
2022-11-29T17:12:00.189Z,23.63
2022-11-29T17:14:33.814Z,23.52
2022-11-29T17:17:01.125Z,22.02
2022-11-29T17:19:31.358Z,12.23
2022-11-29T17:21:59.713Z,11.55
2022-11-29T17:24:26.744Z,17.52
2022-11-29T17:26:54.093Z,15.98
2022-11-29T17:29:21.472Z,15.10
2022-11-29T17:31:50.789Z,15.35
2022-11-29T17:34:18.634Z,17.42
2022-11-29T17:36:46.168Z,43.22
2022-11-29T17:39:15.774Z,40.03
2022-11-29T17:41:43.237Z,40.03
2022-11-29T17:44:10.478Z,32.08
2022-11-29T17:46:38.303Z,17.42
2022-11-29T17:49:07.673Z,14.35
2022-11-29T17:51:53.890Z,17.23
2022-11-29T17:54:22.601Z,25.85
2022-11-29T17:56:50.942Z,33.15
2022-11-29T17:59:18.344Z,16.67
2022-11-29T18:01:47.559Z,33.83
2022-11-29T18:04:14.889Z,74.70
2022-11-29T18:06:41.984Z,30.98
2022-11-29T18:09:10.656Z,18.77
2022-11-29T18:11:48.147Z,15.68
2022-11-29T18:14:18.440Z,18.30
2022-11-29T18:16:45.743Z,16.30
2022-11-29T18:19:16.724Z,16.10
2022-11-29T18:21:44.557Z,13.10
2022-11-29T18:24:11.872Z,12.90
2022-11-29T18:26:40.164Z,12.45
2022-11-29T18:29:07.915Z,9.40
2022-11-29T18:31:37.694Z,11.07
2022-11-29T18:34:07.321Z,9.05
2022-11-29T18:36:37.904Z,8.88
2022-11-29T18:39:09.014Z,8.38
2022-11-29T18:41:37.434Z,8.65
2022-11-29T18:44:09.876Z,7.63
2022-11-29T18:46:38.652Z,7.43
2022-11-29T18:49:08.192Z,8.82
2022-11-29T18:51:36.334Z,8.07
2022-11-29T18:54:05.588Z,10.20
2022-11-29T18:56:35.204Z,14.27
2022-11-29T18:59:04.812Z,13.48
2022-11-29T19:01:34.287Z,12.45
2022-11-29T19:04:02.324Z,10.27
2022-11-29T19:06:37.354Z,11.55
2022-11-29T19:09:07.906Z,11.70
2022-11-29T19:11:35.083Z,11.23
2022-11-29T19:14:05.510Z,11.98
2022-11-29T19:16:34.543Z,14.80
2022-11-29T19:19:02.347Z,14.63
2022-11-29T19:21:35.084Z,13.50
2022-11-29T19:24:04.095Z,12.10
2022-11-29T19:26:32.421Z,10.93
2022-11-29T19:29:00.840Z,12.00
2022-11-29T19:31:28.380Z,13.73
2022-11-29T19:33:56.551Z,24.58
2022-11-29T19:36:25.886Z,36.95
2022-11-29T19:38:54.655Z,26.35
2022-11-29T19:41:26.537Z,22.65
2022-11-29T19:43:56.584Z,24.38
2022-11-29T19:46:28.928Z,28.80
2022-11-29T19:48:57.828Z,18.90
2022-11-29T19:51:26.347Z,15.98
2022-11-29T19:53:56.516Z,21.98
2022-11-29T19:56:24.294Z,12.80
2022-11-29T19:58:51.673Z,21.35
2022-11-29T20:01:23.322Z,19.35
2022-11-29T20:03:50.937Z,15.30
2022-11-29T20:06:19.293Z,12.55
2022-11-29T20:08:47.225Z,12.27
2022-11-29T20:11:19.566Z,13.57
2022-11-29T20:14:00.453Z,17.88
2022-11-29T20:16:29.214Z,51.05
2022-11-29T20:18:57.686Z,29.13
2022-11-29T20:21:28.246Z,41.17
2022-11-29T20:24:02.092Z,73.68
2022-11-29T20:26:31.306Z,60.38
2022-11-29T20:28:59.555Z,67.13
2022-11-29T20:31:26.813Z,41.42
2022-11-29T20:33:57.689Z,26.38
2022-11-29T20:36:32.083Z,21.75
2022-11-29T20:39:29.418Z,21.00
2022-11-29T20:42:27.564Z,14.05
2022-11-29T20:44:57.743Z,11.32
2022-11-29T20:47:47.075Z,10.40
2022-11-29T20:50:23.275Z,14.90
2022-11-29T20:53:16.758Z,13.38
2022-11-29T20:55:47.893Z,13.48
2022-11-29T20:58:16.475Z,11.20
2022-11-29T21:00:43.937Z,11.13
2022-11-29T21:03:19.060Z,16.48
2022-11-29T21:05:47.022Z,25.33
2022-11-29T21:08:15.373Z,26.23
2022-11-29T21:10:42.783Z,24.67
2022-11-29T21:13:13.884Z,20.92
2022-11-29T21:15:41.862Z,22.65
2022-11-29T21:18:19.254Z,21.63
2022-11-29T21:20:49.654Z,19.85
2022-11-29T21:23:30.683Z,17.63
2022-11-29T21:26:23.534Z,15.77
2022-11-29T21:29:02.956Z,13.95
2022-11-29T21:31:30.704Z,7.72
2022-11-29T21:33:58.235Z,16.42
2022-11-29T21:36:25.825Z,13.55
2022-11-29T21:38:55.250Z,14.32
2022-11-29T21:41:23.824Z,12.30
2022-11-29T21:44:06.067Z,11.60
2022-11-29T21:46:35.428Z,9.77
2022-11-29T21:49:02.400Z,7.45
2022-11-29T21:51:29.755Z,8.73
2022-11-29T21:53:56.693Z,7.63
2022-11-29T21:56:23.993Z,7.60
2022-11-29T21:58:50.987Z,6.85
2022-11-29T22:01:20.322Z,6.70
2022-11-29T22:03:47.813Z,6.05
2022-11-29T22:06:18.769Z,6.25
2022-11-29T22:08:46.033Z,6.28
2022-11-29T22:11:16.196Z,5.75
2022-11-29T22:14:02.996Z,4.65
2022-11-29T22:16:31.289Z,6.13
2022-11-29T22:18:58.187Z,5.63
2022-11-29T22:21:25.173Z,6.28
2022-11-29T22:23:52.686Z,5.15
2022-11-29T22:26:21.893Z,5.30
2022-11-29T22:28:49.113Z,6.32
2022-11-29T22:31:16.739Z,6.60
2022-11-29T22:33:43.544Z,4.93
2022-11-29T22:36:12.278Z,5.30
2022-11-29T22:38:40.156Z,5.47
2022-11-29T22:41:09.909Z,4.95
2022-11-29T22:43:38.614Z,5.15
2022-11-29T22:46:16.132Z,4.93
2022-11-29T22:48:44.774Z,4.22
2022-11-29T22:51:17.635Z,5.18
2022-11-29T22:53:50.545Z,4.45
2022-11-29T22:56:18.214Z,3.80
2022-11-29T22:58:46.053Z,3.22
2022-11-29T23:01:18.201Z,4.10
2022-11-29T23:03:48.594Z,4.28
2022-11-29T23:06:18.042Z,4.75
2022-11-29T23:08:46.294Z,3.80
2022-11-29T23:11:18.974Z,3.25
2022-11-29T23:13:46.542Z,4.30
2022-11-29T23:16:16.687Z,4.32
2022-11-29T23:18:45.965Z,4.10
2022-11-29T23:21:14.186Z,4.50
2022-11-29T23:23:41.986Z,4.28
2022-11-29T23:26:09.845Z,4.97
2022-11-29T23:28:37.352Z,15.30
2022-11-29T23:31:04.205Z,8.18
2022-11-29T23:33:31.283Z,17.67
2022-11-29T23:36:03.017Z,9.82
2022-11-29T23:38:30.743Z,10.60
2022-11-29T23:40:57.992Z,8.98
2022-11-29T23:43:25.414Z,10.15
2022-11-29T23:45:52.994Z,9.55
2022-11-29T23:48:20.094Z,5.75
2022-11-29T23:50:47.374Z,5.30
2022-11-29T23:53:16.093Z,5.22
2022-11-29T23:55:43.304Z,7.05
2022-11-29T23:58:10.764Z,7.97
